Aviation Digital Data Service (ADDS)

Output produced by METARs form (0344 UTC 23 November 2017)
found at http://www.aviationweather.gov/adds/metars/
 
BKPR 230330Z VRB01KT 8000 NSC M01/M04 Q1021 NOSIG RMK 17010095
TAF BKPR 222330Z 2300/2324 VRB03KT CAVOK 
     TEMPO 2304/2308 3000 BR